Airfield :
LOGIN :

Register | Disclaimer

   EN    FR    IT 

 










Legend :    VFR   Marginal VFR   IFR   Intensive IFR   Very Intensive IFR
Visi :
Ceiling :
>= 8 km
>= 3000ft
5 to 8 km
1000 to 3000 ft
1500m to 5 km
500 to 1000 ft
800 to 1500m
200 to 500 ft
< 800m
< 200 ft
Symbols :   Thunderstorms  Fog  Heavy snow  Heavy precipitations  Wind > 20 kt
SIGMETs :     Misc.  Thunderstorms  Icing  Turbulence  Mountain Waves  Volcanic Ashes






- Airport Elevation : 1470 ft
- IATA code : KLU


LOWK - Klagenfurt

CURRENT METAR :
  • 281220Z VRB02KT 9999 FEW060 24/12 Q1020 NOSIG

EXPIRED METARs :
  • 281150Z VRB02KT 9999 FEW060 24/11 Q1021 NOSIG
  • 281120Z VRB02KT 9999 FEW060 23/11 Q1021 NOSIG
  • 281050Z VRB02KT 9999 FEW060 22/11 Q1021 NOSIG
  • 281020Z VRB03KT 9999 FEW060 21/14 Q1022 NOSIG
  • 280950Z VRB02KT 9999 FEW060 20/12 Q1022 NOSIG

TAF TAF LOWK
Valid from the 28 at 12:00 until the 29 at 12:00 UTC


281115Z 2812/2912 VRB04KT 9999 FEW060 TX24/2814Z TN12/2904Z
PROB30
TEMPO 2903/2908 BKN006
TEMPO 2910/2912 -SHRA



MET'MAP, your aeronautical weather chart ! - Copyright ORBIFLY December 2007 - Disclaimer

ORBIFLY MET'MAP TEAM :

Programming & Development : Alexandra Zaïnal
Concept & original design : Baudouin d'Aumeries
Assistance for programming : Marc-Olivier Méhu
Technical & hardware support : Manuel Goepfert

Contact : metmap@orbifly.com




SOURCES & CREDITS :

   NOAA